Terminal Aerodrome Forecast
Issued by NWS Blacksburg, VA

Current Version | Previous Version | Graphics & Text | Print | Product List | Glossary On
Versions: 1 2 3 4 5 6 7 8 9 10 11 12 13 14 15 16 17 18 19 20 21 22 23 24 25 26 27 28 29 30 31 32 33 34 35 36 37 38 39 40 41
000
FTUS41 KRNK 241539 AAA
TAFBLF
TAF AMD
KBLF 241539Z 2416/2512 21006KT 4SM -SHRA OVC040
     FM241800 23011G19KT P6SM VCSH BKN040
     FM250000 19007KT P6SM BKN060
     FM250600 18009KT P6SM BKN090 WS020/21040KT=

USA.gov is the U.S. government's official web portal to all federal, state and local government web resources and services.